createdAt,value
2022-08-22T00:00:13.276Z,100559.06
2022-08-22T00:02:43.359Z,100608.03
2022-08-22T00:03:03.073Z,100562.53
2022-08-22T00:03:11.735Z,100577.00
2022-08-22T00:06:00.361Z,100558.38
2022-08-22T00:08:59.365Z,100548.28
2022-08-22T00:12:00.214Z,100562.84
2022-08-22T00:14:49.610Z,100554.34
2022-08-22T00:17:43.222Z,100543.69
2022-08-22T00:20:26.065Z,100543.91
2022-08-22T00:23:04.103Z,100551.63
2022-08-22T00:25:43.378Z,100551.31
2022-08-22T00:28:19.159Z,100552.97
2022-08-22T00:31:03.197Z,100542.50
2022-08-22T00:33:39.653Z,100547.94
2022-08-22T00:36:29.570Z,100532.91
2022-08-22T00:39:10.716Z,100532.19
2022-08-22T00:41:49.844Z,100479.03
2022-08-22T00:44:22.578Z,100531.38
2022-08-22T00:46:49.483Z,100538.84
2022-08-22T00:49:34.193Z,100540.84
2022-08-22T00:52:22.725Z,100525.69
2022-08-22T00:54:58.620Z,100517.41
2022-08-22T00:57:38.070Z,100504.97
2022-08-22T01:00:22.686Z,100480.06
2022-08-22T01:03:27.132Z,100506.97
2022-08-22T01:06:12.152Z,100505.53
2022-08-22T01:08:51.295Z,100510.72
2022-08-22T01:11:32.966Z,100499.13
2022-08-22T01:14:37.055Z,100475.28
2022-08-22T01:17:21.813Z,100505.50
2022-08-22T01:20:08.878Z,100495.81
2022-08-22T01:23:06.184Z,100480.44
2022-08-22T01:26:00.783Z,100485.50
2022-08-22T01:28:51.830Z,100474.13
2022-08-22T01:31:40.755Z,100486.66
2022-08-22T01:34:26.253Z,100477.19
2022-08-22T01:37:19.098Z,100479.69
2022-08-22T01:40:21.153Z,100470.84
2022-08-22T01:43:09.953Z,100421.22
2022-08-22T01:45:51.676Z,100470.75
2022-08-22T01:48:32.071Z,100468.84
2022-08-22T01:51:13.140Z,100443.75
2022-08-22T01:53:48.556Z,100419.16
2022-08-22T01:56:19.907Z,100461.78
2022-08-22T01:59:01.762Z,100431.72
2022-08-22T02:01:50.168Z,100449.22
2022-08-22T02:04:27.151Z,100448.72
2022-08-22T02:07:20.289Z,100433.81
2022-08-22T02:10:06.906Z,100397.91
2022-08-22T02:12:47.890Z,100434.72
2022-08-22T02:15:14.740Z,100439.00
2022-08-22T02:18:03.155Z,100428.06
2022-08-22T02:20:39.613Z,100400.38
2022-08-22T02:23:25.315Z,100425.38
2022-08-22T02:26:05.178Z,100417.69
2022-08-22T02:28:35.100Z,100422.97
2022-08-22T02:31:07.322Z,100415.94
2022-08-22T02:33:49.398Z,100414.06
2022-08-22T02:36:23.048Z,100402.44
2022-08-22T02:39:08.173Z,100412.16
2022-08-22T02:41:56.086Z,100411.66
2022-08-22T02:44:52.128Z,100406.28
2022-08-22T02:47:42.057Z,100407.16
2022-08-22T02:50:12.662Z,100412.81
2022-08-22T02:53:05.031Z,100389.94
2022-08-22T02:55:42.554Z,100355.75
2022-08-22T02:58:18.530Z,100421.59
2022-08-22T03:01:17.581Z,100408.56
2022-08-22T03:03:48.406Z,100393.00
2022-08-22T03:06:38.790Z,100388.41
2022-08-22T03:09:14.587Z,100398.88
2022-08-22T03:11:50.309Z,100368.22
2022-08-22T03:14:34.076Z,100394.97
2022-08-22T03:17:14.154Z,100393.06
2022-08-22T03:20:14.041Z,100404.16
2022-08-22T03:23:00.118Z,100400.13
2022-08-22T03:25:56.323Z,100397.97
2022-08-22T03:28:38.853Z,100344.53
2022-08-22T03:31:25.806Z,100405.28
2022-08-22T03:34:21.512Z,100404.78
2022-08-22T03:37:15.421Z,100398.53
2022-08-22T03:39:51.373Z,100405.16
2022-08-22T03:42:31.400Z,100407.22
2022-08-22T03:45:34.894Z,100409.13
2022-08-22T03:48:20.765Z,100386.94
2022-08-22T03:51:09.457Z,100398.00
2022-08-22T03:54:00.323Z,100395.53
2022-08-22T03:56:39.167Z,100389.03
2022-08-22T03:59:34.715Z,100389.72
2022-08-22T04:02:24.717Z,100379.91
2022-08-22T04:05:46.891Z,100364.06
2022-08-22T04:08:47.260Z,100375.44
2022-08-22T04:11:21.735Z,100375.91
2022-08-22T04:14:03.648Z,100371.16
2022-08-22T04:16:55.663Z,100351.16
2022-08-22T04:19:48.004Z,100366.41
2022-08-22T04:22:22.562Z,100330.66
2022-08-22T04:25:14.781Z,100362.34
2022-08-22T04:27:56.119Z,100360.34
2022-08-22T04:30:31.614Z,100353.25
2022-08-22T04:33:01.734Z,100361.63
2022-08-22T04:35:56.941Z,100354.50
2022-08-22T04:38:37.711Z,100350.03
2022-08-22T04:41:18.657Z,100342.78
2022-08-22T04:43:51.978Z,100298.06
2022-08-22T04:46:37.333Z,100351.66
2022-08-22T04:49:33.317Z,100356.38
2022-08-22T04:52:18.642Z,100363.91
2022-08-22T04:54:57.493Z,100359.16
2022-08-22T04:57:51.798Z,100360.47
2022-08-22T05:00:18.814Z,100365.31
2022-08-22T05:02:51.051Z,100357.16
2022-08-22T05:05:24.563Z,100333.53
2022-08-22T05:07:58.653Z,100301.44
2022-08-22T05:10:36.187Z,100252.69
2022-08-22T05:13:07.749Z,100309.25
2022-08-22T05:15:38.783Z,100334.22
2022-08-22T05:18:16.379Z,100308.78
2022-08-22T05:20:49.272Z,100305.16
2022-08-22T05:23:24.838Z,100278.81
2022-08-22T05:25:56.526Z,100297.63
2022-08-22T05:28:36.124Z,100349.59
2022-08-22T05:31:11.853Z,100305.09
2022-08-22T05:33:44.991Z,100357.78
2022-08-22T05:36:42.100Z,100361.78
2022-08-22T05:39:12.323Z,100366.03
2022-08-22T05:41:40.922Z,100341.22
2022-08-22T05:44:18.494Z,100360.94
2022-08-22T05:46:50.422Z,100312.78
2022-08-22T05:49:30.205Z,100367.47
2022-08-22T05:52:08.990Z,100297.16
2022-08-22T05:54:52.559Z,100356.19
2022-08-22T05:57:36.611Z,100304.88
2022-08-22T06:00:19.034Z,100349.44
2022-08-22T06:03:06.914Z,100344.38
2022-08-22T06:05:40.448Z,100346.19
2022-08-22T06:08:32.092Z,100355.16
2022-08-22T06:11:06.319Z,100353.50
2022-08-22T06:13:41.489Z,100356.38
2022-08-22T06:16:23.928Z,100363.84
2022-08-22T06:18:52.882Z,100371.75
2022-08-22T06:21:34.962Z,100371.41
2022-08-22T06:24:09.742Z,100318.91
2022-08-22T06:26:40.514Z,100352.38
2022-08-22T06:29:09.498Z,100352.41
2022-08-22T06:31:43.198Z,100366.91
2022-08-22T06:34:14.367Z,100349.19
2022-08-22T06:36:46.928Z,100268.25
2022-08-22T06:39:30.256Z,100366.34
2022-08-22T06:42:01.304Z,100364.09
2022-08-22T06:44:34.129Z,100361.94
2022-08-22T06:47:04.653Z,100350.31
2022-08-22T06:49:35.169Z,100342.75
2022-08-22T06:52:23.891Z,100336.75
2022-08-22T06:55:00.342Z,100357.22
2022-08-22T06:57:37.321Z,100376.31
2022-08-22T07:00:10.595Z,100368.81
2022-08-22T07:02:44.231Z,100298.56
2022-08-22T07:05:17.821Z,100364.94
2022-08-22T07:07:45.082Z,100316.28
2022-08-22T07:10:16.224Z,100368.41
2022-08-22T07:12:50.680Z,100318.09
2022-08-22T07:15:43.862Z,100375.56
2022-08-22T07:18:21.007Z,100377.50
2022-08-22T07:20:59.018Z,100372.44
2022-08-22T07:23:45.085Z,100274.78
2022-08-22T07:26:33.836Z,100357.44
2022-08-22T07:29:33.724Z,100345.31
2022-08-22T07:32:17.251Z,100336.28
2022-08-22T07:35:02.575Z,100365.91
2022-08-22T07:38:08.179Z,100361.81
2022-08-22T07:40:44.063Z,100369.22
2022-08-22T07:43:32.197Z,100367.41
2022-08-22T07:46:11.560Z,100349.88
2022-08-22T07:49:07.641Z,100376.53
2022-08-22T07:51:36.954Z,100369.50
2022-08-22T07:54:10.489Z,100273.59
2022-08-22T07:56:57.823Z,100273.72
2022-08-22T07:59:28.378Z,100363.94
2022-08-22T08:01:59.042Z,100359.09
2022-08-22T08:04:30.635Z,100317.66
2022-08-22T08:07:00.583Z,100368.66
2022-08-22T08:09:33.628Z,100367.84
2022-08-22T08:12:04.067Z,100375.69
2022-08-22T08:14:32.126Z,100313.25
2022-08-22T08:17:23.892Z,100355.50
2022-08-22T08:19:52.067Z,100329.59
2022-08-22T08:22:27.558Z,100368.91
2022-08-22T08:24:57.779Z,100352.00
2022-08-22T08:27:50.194Z,100344.53
2022-08-22T08:30:34.312Z,100315.72
2022-08-22T08:33:25.365Z,100352.44
2022-08-22T08:36:03.341Z,100351.63
2022-08-22T08:38:41.606Z,100339.94
2022-08-22T08:41:45.747Z,100361.88
2022-08-22T08:44:30.906Z,100359.19
2022-08-22T08:47:16.433Z,100320.53
2022-08-22T08:50:08.291Z,100356.41
2022-08-22T08:53:07.975Z,100319.53
2022-08-22T08:59:15.826Z,100355.75
2022-08-22T09:01:55.406Z,100355.84
2022-08-22T09:04:46.815Z,100361.69
2022-08-22T09:07:41.512Z,100354.84
2022-08-22T09:10:32.933Z,100362.56
2022-08-22T09:13:11.521Z,100364.09
2022-08-22T09:15:39.730Z,100357.78
2022-08-22T09:18:27.525Z,100348.91
2022-08-22T09:21:30.601Z,100347.53
2022-08-22T09:24:47.168Z,100327.47
2022-08-22T09:27:25.323Z,100326.66
2022-08-22T09:30:00.301Z,100340.25
2022-08-22T09:32:46.560Z,100341.19
2022-08-22T09:35:23.906Z,100277.28
2022-08-22T09:37:53.840Z,100344.63
2022-08-22T09:40:16.062Z,100363.06
2022-08-22T09:40:37.914Z,100343.06
2022-08-22T09:43:14.284Z,100318.22
2022-08-22T09:46:15.762Z,100342.00
2022-08-22T09:49:06.484Z,100337.28
2022-08-22T09:51:55.164Z,100343.22
2022-08-22T09:54:48.882Z,100341.53
2022-08-22T09:57:16.533Z,100349.16
2022-08-22T10:00:09.993Z,100338.97
2022-08-22T10:02:59.026Z,100328.66
2022-08-22T10:05:47.338Z,100333.94
2022-08-22T10:08:40.050Z,100330.28
2022-08-22T10:11:14.061Z,100346.50
2022-08-22T10:14:05.002Z,100331.19
2022-08-22T10:16:53.120Z,100332.69
2022-08-22T10:19:33.103Z,100336.47
2022-08-22T10:22:32.482Z,100256.84
2022-08-22T10:25:25.223Z,100330.41
2022-08-22T10:28:01.198Z,100329.84
2022-08-22T10:30:38.968Z,100335.72
2022-08-22T10:33:31.980Z,100272.53
2022-08-22T10:36:11.721Z,100303.81
2022-08-22T10:38:51.056Z,100324.81
2022-08-22T10:41:26.730Z,100335.13
2022-08-22T10:44:01.334Z,100333.13
2022-08-22T10:46:58.956Z,100314.88
2022-08-22T10:49:33.912Z,100308.09
2022-08-22T10:52:15.666Z,100321.41
2022-08-22T10:55:09.715Z,100311.75
2022-08-22T10:58:10.275Z,100309.34
2022-08-22T11:00:50.255Z,100314.34
2022-08-22T11:03:50.214Z,100299.50
2022-08-22T11:06:25.181Z,100289.16
2022-08-22T11:09:10.099Z,100294.44
2022-08-22T11:11:39.680Z,100307.81
2022-08-22T11:14:30.515Z,100287.34
2022-08-22T11:17:28.921Z,100292.13
2022-08-22T11:20:01.725Z,100293.31
2022-08-22T11:22:30.667Z,100303.69
2022-08-22T11:25:23.785Z,100292.63
2022-08-22T11:28:05.774Z,100303.31
2022-08-22T11:31:04.046Z,100292.00
2022-08-22T11:33:52.394Z,100300.16
2022-08-22T11:36:41.870Z,100273.38
2022-08-22T11:39:38.019Z,100264.28
2022-08-22T11:42:08.597Z,100279.69
2022-08-22T11:44:56.706Z,100193.81
2022-08-22T11:47:37.564Z,100258.31
2022-08-22T11:50:28.556Z,100264.28
2022-08-22T11:53:01.571Z,100254.75
2022-08-22T11:55:48.099Z,100270.81
2022-08-22T11:58:41.407Z,100254.03
2022-08-22T12:01:34.490Z,100242.06
2022-08-22T12:04:04.379Z,100241.47
2022-08-22T12:06:52.064Z,100239.53
2022-08-22T12:09:33.805Z,100215.78
2022-08-22T12:12:12.645Z,100239.53
2022-08-22T12:15:11.250Z,100227.50
2022-08-22T12:18:02.873Z,100233.88
2022-08-22T12:20:53.783Z,100232.06
2022-08-22T12:23:51.591Z,100224.34
2022-08-22T12:26:55.737Z,100216.47
2022-08-22T12:29:45.213Z,100218.59
2022-08-22T12:32:37.014Z,100208.16
2022-08-22T12:35:29.972Z,100205.72
2022-08-22T12:38:28.423Z,100185.88
2022-08-22T12:41:08.203Z,100203.22
2022-08-22T12:43:44.097Z,100158.41
2022-08-22T12:46:24.275Z,100165.69
2022-08-22T12:49:40.836Z,100187.50
2022-08-22T12:52:11.719Z,100193.19
2022-08-22T12:54:44.550Z,100182.75
2022-08-22T12:57:29.455Z,100177.13
2022-08-22T13:00:04.470Z,100173.06
2022-08-22T13:02:39.546Z,100175.19
2022-08-22T13:05:19.908Z,100173.06
2022-08-22T13:07:54.660Z,100165.25
2022-08-22T13:10:43.066Z,100167.47
2022-08-22T13:13:31.810Z,100147.56
2022-08-22T13:16:11.706Z,100127.56
2022-08-22T13:19:07.771Z,100134.81
2022-08-22T13:21:48.328Z,100125.88
2022-08-22T13:24:38.610Z,100142.59
2022-08-22T13:27:25.065Z,100129.38
2022-08-22T13:29:58.766Z,100151.19
2022-08-22T13:32:44.437Z,100114.75
2022-08-22T13:35:32.638Z,100133.78
2022-08-22T13:38:12.229Z,100123.69
2022-08-22T13:40:45.870Z,100105.03
2022-08-22T13:43:19.201Z,100099.34
2022-08-22T13:45:54.614Z,100090.69
2022-08-22T13:48:28.579Z,100117.94
2022-08-22T13:51:06.255Z,100098.03
2022-08-22T13:53:34.966Z,100106.78
2022-08-22T13:56:30.236Z,100093.00
2022-08-22T13:59:00.659Z,100039.88
2022-08-22T14:01:38.064Z,100055.91
2022-08-22T14:04:19.987Z,100067.84
2022-08-22T14:07:06.367Z,100070.38
2022-08-22T14:09:54.614Z,100018.50
2022-08-22T14:12:33.374Z,100029.00
2022-08-22T14:15:25.476Z,100052.16
2022-08-22T14:18:21.279Z,100015.47
2022-08-22T14:21:16.402Z,99953.47
2022-08-22T14:23:45.117Z,100020.84
2022-08-22T14:26:23.470Z,100036.03
2022-08-22T14:29:03.071Z,99981.16
2022-08-22T14:31:31.201Z,100019.47
2022-08-22T14:34:10.731Z,99966.34
2022-08-22T14:36:46.030Z,100010.06
2022-08-22T14:39:22.484Z,99997.38
2022-08-22T14:42:10.912Z,99999.97
2022-08-22T14:44:47.852Z,99993.38
2022-08-22T14:47:55.610Z,99989.34
2022-08-22T14:50:54.154Z,99994.31
2022-08-22T14:53:23.651Z,99989.78
2022-08-22T14:56:06.979Z,99978.78
2022-08-22T14:58:49.514Z,99964.09
2022-08-22T15:01:21.635Z,99928.84
2022-08-22T15:04:01.295Z,99948.97
2022-08-22T15:06:37.148Z,99965.34
2022-08-22T15:09:22.840Z,99964.97
2022-08-22T15:11:49.843Z,99973.19
2022-08-22T15:14:38.066Z,99964.97
2022-08-22T15:17:09.468Z,99964.56
2022-08-22T15:19:44.463Z,99943.78
2022-08-22T15:22:27.635Z,99956.09
2022-08-22T15:25:25.559Z,99952.84
2022-08-22T15:27:59.611Z,99927.09
2022-08-22T15:30:57.588Z,99881.75
2022-08-22T15:33:34.258Z,99948.41
2022-08-22T15:36:21.594Z,99936.53
2022-08-22T15:38:51.207Z,99944.00
2022-08-22T15:41:36.354Z,99924.75
2022-08-22T15:44:30.642Z,99917.03
2022-08-22T15:47:11.963Z,99932.63
2022-08-22T15:49:54.838Z,99930.94
2022-08-22T15:52:28.930Z,99894.13
2022-08-22T15:54:57.032Z,99940.81
2022-08-22T15:57:35.446Z,99930.56
2022-08-22T16:00:28.112Z,99922.34
2022-08-22T16:03:29.139Z,99845.09
2022-08-22T16:06:07.528Z,99898.66
2022-08-22T16:08:37.259Z,99916.69
2022-08-22T16:11:04.010Z,99917.94
2022-08-22T16:13:30.802Z,99926.91
2022-08-22T16:16:07.409Z,99867.19
2022-08-22T16:18:34.167Z,99925.72
2022-08-22T16:21:06.134Z,99899.09
2022-08-22T16:23:54.325Z,99911.41
2022-08-22T16:26:30.224Z,99913.84
2022-08-22T16:29:17.870Z,99911.78
2022-08-22T16:31:44.943Z,99912.63
2022-08-22T16:34:18.196Z,99897.88
2022-08-22T16:36:50.921Z,99903.59
2022-08-22T16:39:23.803Z,99896.66
2022-08-22T16:42:11.821Z,99894.22
2022-08-22T16:45:08.628Z,99908.16
2022-08-22T16:47:52.200Z,99863.13
2022-08-22T16:50:43.152Z,99899.16
2022-08-22T16:53:21.896Z,99915.53
2022-08-22T16:56:02.437Z,99819.84
2022-08-22T16:58:56.229Z,99845.19
2022-08-22T17:02:06.610Z,99911.41
2022-08-22T17:04:44.919Z,99899.94
2022-08-22T17:07:17.776Z,99912.25
2022-08-22T17:10:10.193Z,99828.88
2022-08-22T17:12:57.404Z,99856.66
2022-08-22T17:15:48.794Z,99915.56
2022-08-22T17:18:42.960Z,99914.72
2022-08-22T17:21:18.152Z,99901.63
2022-08-22T17:23:59.586Z,99911.09
2022-08-22T17:26:50.678Z,99907.78
2022-08-22T17:29:44.922Z,99882.88
2022-08-22T17:32:29.420Z,99900.84
2022-08-22T17:35:15.006Z,99889.00
2022-08-22T17:37:55.309Z,99890.66
2022-08-22T17:40:45.572Z,99874.63
2022-08-22T17:43:32.770Z,99882.03
2022-08-22T17:46:47.396Z,99877.13
2022-08-22T17:49:48.892Z,99856.28
2022-08-22T17:52:20.941Z,99825.56
2022-08-22T17:55:06.740Z,99871.78
2022-08-22T17:57:55.274Z,99812.50
2022-08-22T18:00:33.720Z,99853.88
2022-08-22T18:03:14.269Z,99866.16
2022-08-22T18:06:05.084Z,99848.53
2022-08-22T18:11:54.108Z,99842.38
2022-08-22T18:14:42.517Z,99847.69
2022-08-22T18:17:44.480Z,99849.75
2022-08-22T18:20:32.935Z,99755.31
2022-08-22T18:23:21.666Z,99844.03
2022-08-22T18:26:28.675Z,99843.66
2022-08-22T18:29:03.842Z,99850.59
2022-08-22T18:31:46.178Z,99793.75
2022-08-22T18:34:47.315Z,99846.16
2022-08-22T18:37:46.458Z,99837.16
2022-08-22T18:40:28.756Z,99830.59
2022-08-22T18:42:55.685Z,99863.41
2022-08-22T18:45:45.709Z,99857.25
2022-08-22T18:48:30.825Z,99855.19
2022-08-22T18:51:31.391Z,99860.53
2022-08-22T18:54:05.791Z,99853.56
2022-08-22T18:57:00.143Z,99850.28
2022-08-22T18:59:48.640Z,99851.13
2022-08-22T19:02:21.443Z,99860.97
2022-08-22T19:05:08.969Z,99847.06
2022-08-22T19:08:00.117Z,99865.09
2022-08-22T19:11:04.496Z,99861.84
2022-08-22T19:14:03.723Z,99863.47
2022-08-22T19:16:51.226Z,99820.06
2022-08-22T19:19:57.093Z,99860.63
2022-08-22T19:22:33.990Z,99837.28
2022-08-22T19:25:20.675Z,99853.22
2022-08-22T19:28:10.095Z,99852.84
2022-08-22T19:30:41.585Z,99854.47
2022-08-22T19:33:19.554Z,99806.97
2022-08-22T19:35:54.358Z,99861.00
2022-08-22T19:38:59.499Z,99848.72
2022-08-22T19:41:44.763Z,99859.34
2022-08-22T19:44:20.555Z,99858.50
2022-08-22T19:47:12.800Z,99862.59
2022-08-22T19:49:44.527Z,99840.84
2022-08-22T19:52:12.256Z,99862.13
2022-08-22T19:54:59.617Z,99864.16
2022-08-22T19:58:00.621Z,99851.88
2022-08-22T20:00:55.033Z,99853.50
2022-08-22T20:03:43.303Z,99863.31
2022-08-22T20:06:43.053Z,99863.28
2022-08-22T20:09:23.114Z,99868.19
2022-08-22T20:11:53.071Z,99869.81
2022-08-22T20:14:30.644Z,99842.78
2022-08-22T20:17:18.682Z,99864.84
2022-08-22T20:22:46.088Z,99848.72
2022-08-22T20:25:17.083Z,99868.31
2022-08-22T20:28:07.023Z,99856.81
2022-08-22T20:30:39.718Z,99833.38
2022-08-22T20:33:18.746Z,99812.03
2022-08-22T20:35:59.374Z,99814.44
2022-08-22T20:38:39.739Z,99855.47
2022-08-22T20:41:16.132Z,99872.63
2022-08-22T20:44:03.618Z,99784.00
2022-08-22T20:46:43.638Z,99872.13
2022-08-22T20:49:32.395Z,99879.81
2022-08-22T20:52:04.459Z,99857.63
2022-08-22T20:54:35.538Z,99876.94
2022-08-22T20:57:10.371Z,99821.56
2022-08-22T20:59:41.785Z,99871.94
2022-08-22T21:02:18.633Z,99867.44
2022-08-22T21:04:52.688Z,99868.59
2022-08-22T21:07:26.094Z,99773.34
2022-08-22T21:10:34.484Z,99855.41
2022-08-22T21:13:23.617Z,99868.75
2022-08-22T21:15:58.159Z,99852.31
2022-08-22T21:18:31.948Z,99861.41
2022-08-22T21:21:08.075Z,99861.41
2022-08-22T21:23:46.423Z,99861.81
2022-08-22T21:26:20.187Z,99856.78
2022-08-22T21:28:49.789Z,99864.69
2022-08-22T21:31:22.378Z,99867.16
2022-08-22T21:33:52.021Z,99860.19
2022-08-22T21:36:20.873Z,99875.19
2022-08-22T21:39:12.388Z,99855.97
2022-08-22T21:41:42.437Z,99819.50
2022-08-22T21:44:36.520Z,99861.41
2022-08-22T21:47:30.280Z,99862.97
2022-08-22T21:50:21.508Z,99850.72
2022-08-22T21:52:54.007Z,99865.47
2022-08-22T21:55:29.018Z,99862.22
2022-08-22T21:58:35.019Z,99856.91
2022-08-22T22:01:31.500Z,99836.75
2022-08-22T22:03:59.313Z,99841.78
2022-08-22T22:06:26.641Z,99843.00
2022-08-22T22:08:53.744Z,99820.03
2022-08-22T22:11:20.789Z,99862.81
2022-08-22T22:13:47.615Z,99780.69
2022-08-22T22:16:22.411Z,99763.97
2022-08-22T22:18:49.301Z,99805.44
2022-08-22T22:21:18.342Z,99854.59
2022-08-22T22:23:45.253Z,99759.91
2022-08-22T22:26:12.435Z,99833.03
2022-08-22T22:28:42.354Z,99773.94
2022-08-22T22:31:10.113Z,99809.56
2022-08-22T22:33:41.183Z,99846.53
2022-08-22T22:36:18.398Z,99839.53
2022-08-22T22:38:46.255Z,99826.41
2022-08-22T22:41:13.422Z,99796.38
2022-08-22T22:43:40.398Z,99843.56
2022-08-22T22:46:07.342Z,99850.91
2022-08-22T22:48:34.330Z,99819.75
2022-08-22T22:51:10.967Z,99834.50
2022-08-22T22:53:42.539Z,99794.34
2022-08-22T22:56:12.670Z,99805.03
2022-08-22T22:58:40.473Z,99832.88
2022-08-22T23:01:15.691Z,99821.81
2022-08-22T23:03:43.650Z,99779.88
2022-08-22T23:06:15.984Z,99803.34
2022-08-22T23:08:43.192Z,99800.06
2022-08-22T23:11:19.900Z,99768.88
2022-08-22T23:13:48.433Z,99821.78
2022-08-22T23:16:20.145Z,99818.97
2022-08-22T23:18:47.407Z,99718.13
2022-08-22T23:21:19.391Z,99751.81
2022-08-22T23:23:47.506Z,99813.34
2022-08-22T23:26:14.942Z,99790.78
2022-08-22T23:28:42.179Z,99808.78
2022-08-22T23:31:14.340Z,99814.06
2022-08-22T23:33:41.318Z,99827.13
2022-08-22T23:36:18.044Z,99798.41
2022-08-22T23:38:46.336Z,99771.69
2022-08-22T23:41:17.930Z,99827.06
2022-08-22T23:43:51.554Z,99824.16
2022-08-22T23:46:21.097Z,99831.13
2022-08-22T23:48:49.123Z,99822.94
2022-08-22T23:51:18.165Z,99787.63
2022-08-22T23:53:50.401Z,99819.63
2022-08-22T23:56:30.584Z,99826.22
2022-08-22T23:58:59.300Z,99832.78
